Time;durP1;ratioP1;P1;durP2;ratioP2;P2;SDS_P1;SDS_P2;PMS_P1;PMS_P2;Temp;Humidity;BMP_temperature;BMP_pressure;BME280_temperature;BME280_humidity;BME280_pressure;Samples;Min_cycle;Max_cycle;Signal;HPM_P1;HPM_P2
2022/09/28 00:01:15;;;;;;;3.60;3.30;;;10.20;1.00;;;;;;5073117;28;20890;-86
2022/09/28 00:03:44;;;;;;;2.40;2.30;;;10.30;1.00;;;;;;5078519;28;20564;-86
2022/09/28 00:06:14;;;;;;;2.60;2.50;;;10.40;99.90;;;;;;5071161;28;20609;-84
2022/09/28 00:08:43;;;;;;;2.50;2.40;;;10.20;1.00;;;;;;5074350;28;20552;-83
2022/09/28 00:11:14;;;;;;;5.37;2.70;;;10.20;1.00;;;;;;5070390;28;20471;-84
2022/09/28 00:13:44;;;;;;;2.70;2.50;;;10.30;59.30;;;;;;5065380;28;20484;-83
2022/09/28 00:16:15;;;;;;;2.97;2.80;;;10.40;1.00;;;;;;5077684;28;20990;-84
2022/09/28 00:18:44;;;;;;;2.80;2.70;;;10.30;1.00;;;;;;5077198;28;20457;-84
2022/09/28 00:21:14;;;;;;;3.03;2.93;;;10.30;20.60;;;;;;5072785;28;21248;-83
2022/09/28 00:26:26;;;;;;;2.47;2.40;;;10.30;99.90;;;;;;5075808;28;20477;-84
2022/09/28 00:28:57;;;;;;;3.73;3.33;;;10.40;98.00;;;;;;5078640;28;20541;-85
2022/09/28 00:31:26;;;;;;;3.37;3.27;;;10.50;99.90;;;;;;5080383;28;20454;-84
2022/09/28 00:33:55;;;;;;;3.27;3.17;;;10.50;66.90;;;;;;5072533;28;20827;-85
2022/09/28 00:36:25;;;;;;;2.90;2.80;;;10.60;1.00;;;;;;5077139;28;20492;-85
2022/09/28 00:38:55;;;;;;;3.30;3.07;;;10.60;1.00;;;;;;5075802;28;20462;-85
2022/09/28 00:41:24;;;;;;;3.37;3.17;;;10.40;99.90;;;;;;5079503;28;21067;-85
2022/09/28 00:43:52;;;;;;;3.00;2.90;;;10.40;99.90;;;;;;5079864;28;20482;-84
2022/09/28 00:46:31;;;;;;;3.10;3.00;;;10.40;99.90;;;;;;5075934;28;20521;-84
2022/09/28 00:49:02;;;;;;;3.43;3.20;;;10.40;99.90;;;;;;5085703;28;21020;-85
2022/09/28 00:51:32;;;;;;;3.10;3.00;;;10.50;99.90;;;;;;5082724;28;20811;-85
2022/09/28 00:54:03;;;;;;;3.90;3.60;;;10.30;99.90;;;;;;5077573;28;20458;-85
2022/09/28 00:56:34;;;;;;;3.50;3.40;;;10.50;99.90;;;;;;5076859;28;20568;-85
2022/09/28 00:59:04;;;;;;;3.70;3.50;;;10.40;1.00;;;;;;5073476;28;20497;-85
2022/09/28 01:01:34;;;;;;;3.70;3.60;;;10.40;1.00;;;;;;5073803;28;20453;-85
2022/09/28 01:04:03;;;;;;;3.50;3.40;;;10.40;1.00;;;;;;5072238;28;20514;-86
2022/09/28 01:06:34;;;;;;;4.73;4.53;;;10.40;1.00;;;;;;5076478;28;20559;-85
2022/09/28 01:09:06;;;;;;;4.50;4.20;;;10.50;1.00;;;;;;5071975;28;20455;-85
2022/09/28 01:11:38;;;;;;;4.37;4.27;;;10.40;1.00;;;;;;5085507;28;21045;-86
2022/09/28 01:14:08;;;;;;;4.23;4.13;;;10.40;1.00;;;;;;5085083;28;20446;-84
2022/09/28 01:16:44;;;;;;;4.50;4.30;;;10.40;1.00;;;;;;5080456;28;20483;-85
2022/09/28 01:19:31;;;;;;;4.67;4.47;;;10.30;1.00;;;;;;5076355;28;20454;-86
2022/09/28 01:22:14;;;;;;;4.27;4.17;;;10.30;1.00;;;;;;5075281;28;21333;-85
2022/09/28 01:24:45;;;;;;;4.77;4.57;;;10.30;1.00;;;;;;5077513;28;20555;-85
2022/09/28 01:27:20;;;;;;;4.53;4.43;;;10.40;1.00;;;;;;5077091;28;20466;-84
2022/09/28 01:29:55;;;;;;;5.30;4.87;;;10.40;1.00;;;;;;5071736;28;20462;-85
2022/09/28 01:32:32;;;;;;;5.20;4.90;;;10.40;1.00;;;;;;5077230;28;20491;-85
2022/09/28 01:35:05;;;;;;;5.43;5.17;;;10.40;1.00;;;;;;5073662;28;20471;-84
2022/09/28 01:37:41;;;;;;;5.40;5.20;;;10.40;1.00;;;;;;5072608;28;20461;-84
2022/09/28 01:40:11;;;;;;;5.03;4.93;;;10.40;1.00;;;;;;5075600;28;20519;-84
2022/09/28 01:42:45;;;;;;;5.10;5.00;;;10.40;1.00;;;;;;5074890;28;20466;-84
2022/09/28 01:45:21;;;;;;;5.73;5.53;;;10.40;1.00;;;;;;5074777;28;20546;-85
2022/09/28 01:47:51;;;;;;;5.60;5.20;;;10.50;1.00;;;;;;5076066;28;20463;-84
2022/09/28 01:50:23;;;;;;;5.73;5.30;;;10.40;1.00;;;;;;5078013;28;20541;-84
2022/09/28 01:52:55;;;;;;;5.37;5.20;;;10.50;1.00;;;;;;5074057;28;20461;-84
2022/09/28 01:55:30;;;;;;;5.60;5.40;;;10.30;1.00;;;;;;5072549;28;20485;-84
2022/09/28 01:58:04;;;;;;;5.50;5.30;;;10.40;1.00;;;;;;5073762;28;20463;-85
2022/09/28 02:00:34;;;;;;;6.10;5.70;;;10.40;1.00;;;;;;5074417;28;20461;-86
2022/09/28 02:03:11;;;;;;;5.90;5.60;;;10.50;1.00;;;;;;5076352;28;20791;-86
2022/09/28 02:05:41;;;;;;;6.30;5.80;;;10.40;1.00;;;;;;5075673;28;21141;-85
2022/09/28 02:08:16;;;;;;;6.77;6.17;;;10.30;1.00;;;;;;5072996;28;20486;-84
2022/09/28 02:10:49;;;;;;;5.93;5.73;;;10.30;1.00;;;;;;5080858;28;20557;-85
2022/09/28 02:13:22;;;;;;;5.73;5.53;;;10.40;1.00;;;;;;5083840;28;20460;-85
2022/09/28 02:15:53;;;;;;;6.30;6.00;;;10.50;1.00;;;;;;5080693;28;20535;-85
2022/09/28 02:18:21;;;;;;;6.13;5.93;;;10.50;1.00;;;;;;5079801;28;20473;-85
2022/09/28 02:20:58;;;;;;;6.67;6.27;;;10.50;1.00;;;;;;5084008;28;21017;-85
2022/09/28 02:23:28;;;;;;;6.13;6.03;;;10.30;1.00;;;;;;5072067;28;20660;-84
2022/09/28 02:26:04;;;;;;;6.50;6.20;;;10.40;1.00;;;;;;5084900;28;20545;-84
2022/09/28 02:28:34;;;;;;;6.00;5.80;;;10.40;1.00;;;;;;5073961;28;20569;-85
2022/09/28 02:31:02;;;;;;;6.57;6.30;;;10.40;1.00;;;;;;5083623;28;20956;-85
2022/09/28 02:33:35;;;;;;;6.30;6.10;;;10.40;1.00;;;;;;5082366;28;20692;-85
2022/09/28 02:36:04;;;;;;;5.83;5.63;;;10.50;1.00;;;;;;5083618;28;20568;-85
2022/09/28 02:38:32;;;;;;;6.30;5.87;;;10.30;1.00;;;;;;5069605;28;20470;-85
2022/09/28 02:41:05;;;;;;;6.20;6.00;;;10.40;1.00;;;;;;5076709;28;20715;-85
2022/09/28 02:43:42;;;;;;;6.30;5.93;;;10.40;1.00;;;;;;5077261;28;20893;-84
2022/09/28 02:46:18;;;;;;;6.43;6.03;;;10.40;1.00;;;;;;5074146;28;20579;-85
2022/09/28 02:49:05;;;;;;;6.20;6.00;;;10.50;1.00;;;;;;5075384;28;20546;-84
2022/09/28 02:52:15;;;;;;;7.07;6.30;;;10.50;1.00;;;;;;5079422;28;20462;-84
2022/09/28 02:55:17;;;;;;;6.90;6.40;;;10.50;1.00;;;;;;5079354;28;20485;-84
2022/09/28 02:57:57;;;;;;;6.97;6.73;;;10.50;1.00;;;;;;5072653;28;20513;-84
2022/09/28 03:00:27;;;;;;;6.50;6.20;;;10.50;1.00;;;;;;5082798;28;20461;-86
2022/09/28 03:03:04;;;;;;;6.33;6.10;;;10.60;1.00;;;;;;5076492;28;20465;-84
2022/09/28 03:05:38;;;;;;;6.67;6.47;;;10.40;1.00;;;;;;5076633;28;20579;-85
2022/09/28 03:08:13;;;;;;;7.30;7.00;;;10.40;1.00;;;;;;5077905;28;20535;-86
2022/09/28 03:10:44;;;;;;;7.57;7.07;;;10.50;1.00;;;;;;5069113;28;20518;-85
2022/09/28 03:13:15;;;;;;;6.83;6.60;;;10.50;1.00;;;;;;5076374;28;21107;-85
2022/09/28 03:15:44;;;;;;;6.80;6.60;;;10.60;1.00;;;;;;5078843;28;20482;-85
2022/09/28 03:18:16;;;;;;;6.50;6.30;;;10.70;1.00;;;;;;5078555;28;20458;-85
2022/09/28 03:20:44;;;;;;;7.30;6.80;;;10.60;1.00;;;;;;5075317;28;21123;-85
2022/09/28 03:23:12;;;;;;;7.00;6.80;;;10.50;1.00;;;;;;5076972;28;20486;-85
2022/09/28 03:25:52;;;;;;;7.00;6.80;;;10.70;1.00;;;;;;5075928;28;20516;-86
2022/09/28 03:28:21;;;;;;;7.70;7.20;;;10.70;1.00;;;;;;5080772;28;20883;-85
2022/09/28 03:30:51;;;;;;;7.23;7.00;;;10.70;1.00;;;;;;5079255;28;20489;-84
2022/09/28 03:33:19;;;;;;;7.40;7.10;;;10.80;1.00;;;;;;5077955;28;20497;-85
2022/09/28 03:35:47;;;;;;;7.80;7.47;;;10.70;1.00;;;;;;5077983;28;20508;-85
2022/09/28 03:38:16;;;;;;;7.83;7.53;;;10.70;1.00;;;;;;5079212;28;20469;-84
2022/09/28 03:40:52;;;;;;;7.20;6.90;;;10.70;1.00;;;;;;5084956;28;20465;-84
2022/09/28 03:43:20;;;;;;;8.93;8.10;;;10.70;1.00;;;;;;5071360;28;20468;-83
2022/09/28 03:45:53;;;;;;;7.73;7.43;;;10.70;1.00;;;;;;5075716;28;20978;-85
2022/09/28 03:48:23;;;;;;;7.60;7.30;;;10.60;1.00;;;;;;5074444;28;20464;-85
2022/09/28 03:51:00;;;;;;;8.00;7.70;;;10.70;1.00;;;;;;5077568;28;20457;-86
2022/09/28 03:53:28;;;;;;;8.30;8.07;;;10.60;1.00;;;;;;5075747;28;20449;-86
2022/09/28 03:56:01;;;;;;;7.27;7.00;;;10.70;1.00;;;;;;5077340;28;20464;-86
2022/09/28 03:58:30;;;;;;;7.93;7.73;;;10.60;1.00;;;;;;5079006;28;20578;-86
2022/09/28 04:01:03;;;;;;;7.93;7.60;;;10.70;1.00;;;;;;5077307;28;20551;-87
2022/09/28 04:03:32;;;;;;;7.70;7.50;;;10.60;1.00;;;;;;5078611;28;20466;-85
2022/09/28 04:06:01;;;;;;;8.03;7.80;;;10.50;1.00;;;;;;5082874;28;21062;-87
2022/09/28 04:08:29;;;;;;;7.90;7.70;;;10.60;1.00;;;;;;5076562;28;21148;-85
2022/09/28 04:10:58;;;;;;;8.23;8.00;;;10.60;1.00;;;;;;5081063;28;20492;-86
2022/09/28 04:13:26;;;;;;;9.43;8.80;;;10.70;1.00;;;;;;5083399;28;20955;-86
2022/09/28 04:15:56;;;;;;;9.07;8.77;;;10.60;1.00;;;;;;5080136;28;20465;-84
2022/09/28 04:18:26;;;;;;;9.00;8.70;;;10.60;1.00;;;;;;5074422;28;20968;-86
2022/09/28 04:21:05;;;;;;;9.40;8.83;;;10.50;1.00;;;;;;5073328;28;20948;-84
2022/09/28 04:23:34;;;;;;;8.67;8.27;;;10.40;1.00;;;;;;5076348;28;20462;-85
2022/09/28 04:26:03;;;;;;;8.27;7.97;;;10.50;1.00;;;;;;5074001;28;20546;-85
2022/09/28 04:31:18;;;;;;;8.10;7.80;;;10.50;1.00;;;;;;5070038;28;20595;-84
2022/09/28 04:33:48;;;;;;;8.30;8.10;;;10.60;1.00;;;;;;5076485;28;20445;-87
2022/09/28 04:36:18;;;;;;;9.00;8.53;;;10.60;1.00;;;;;;5077347;28;20482;-84
2022/09/28 04:38:46;;;;;;;7.70;7.60;;;10.50;1.00;;;;;;5073939;28;21119;-83
2022/09/28 04:41:21;;;;;;;8.00;7.80;;;10.40;1.00;;;;;;5085353;28;20514;-86
2022/09/28 04:43:50;;;;;;;8.67;8.00;;;10.40;1.00;;;;;;5075227;28;20512;-83
2022/09/28 04:46:18;;;;;;;8.13;7.73;;;10.40;1.00;;;;;;5074370;28;20986;-84
2022/09/28 04:48:48;;;;;;;7.77;7.57;;;10.40;1.00;;;;;;5081483;28;20458;-83
2022/09/28 04:51:16;;;;;;;7.60;7.50;;;10.40;1.00;;;;;;5076470;28;20471;-84
2022/09/28 04:53:44;;;;;;;7.33;7.13;;;10.40;1.00;;;;;;5073012;28;21363;-85
2022/09/28 04:56:14;;;;;;;7.80;7.57;;;10.40;1.00;;;;;;5073501;28;20509;-85
2022/09/28 04:58:43;;;;;;;7.50;7.40;;;10.30;1.00;;;;;;5075997;28;20862;-84
2022/09/28 05:01:22;;;;;;;7.90;7.70;;;10.30;1.00;;;;;;5079925;28;21011;-83
2022/09/28 05:03:52;;;;;;;7.53;7.27;;;10.20;1.00;;;;;;5079210;28;20460;-83
2022/09/28 05:06:21;;;;;;;7.40;7.10;;;10.30;1.00;;;;;;5084446;28;20494;-85
2022/09/28 05:08:49;;;;;;;7.40;7.20;;;10.30;1.00;;;;;;5071998;28;20501;-84
2022/09/28 05:11:18;;;;;;;7.67;7.47;;;10.30;1.00;;;;;;5084574;28;20489;-85
2022/09/28 05:13:47;;;;;;;7.73;7.53;;;10.20;1.00;;;;;;5086516;28;21006;-85
2022/09/28 05:16:16;;;;;;;7.20;7.00;;;10.30;1.00;;;;;;5080100;28;20480;-85
2022/09/28 05:18:44;;;;;;;7.70;7.10;;;10.30;1.00;;;;;;5081330;28;20464;-85
2022/09/28 05:21:18;;;;;;;7.33;7.13;;;10.30;1.00;;;;;;5079164;28;20444;-84
2022/09/28 05:23:47;;;;;;;7.10;6.90;;;10.40;1.00;;;;;;5077985;28;20905;-82
2022/09/28 05:26:15;;;;;;;7.13;6.87;;;10.40;1.00;;;;;;5080357;28;20516;-84
2022/09/28 05:28:44;;;;;;;6.90;6.70;;;10.40;1.00;;;;;;5077510;28;20461;-83
2022/09/28 05:31:12;;;;;;;7.50;7.30;;;10.40;1.00;;;;;;5073125;28;20470;-86
2022/09/28 05:33:40;;;;;;;7.03;6.83;;;10.40;1.00;;;;;;5073918;28;20582;-85
2022/09/28 05:36:10;;;;;;;6.37;6.17;;;10.30;1.00;;;;;;5079208;28;20513;-84
2022/09/28 05:38:39;;;;;;;7.30;7.00;;;10.30;1.00;;;;;;5074533;28;21152;-84
2022/09/28 05:41:07;;;;;;;6.93;6.80;;;10.30;1.00;;;;;;5076523;28;20445;-85
2022/09/28 05:43:37;;;;;;;7.17;6.87;;;10.20;1.00;;;;;;5079867;28;20498;-83
2022/09/28 05:46:06;;;;;;;7.07;6.87;;;10.30;1.00;;;;;;5083758;28;20564;-84
2022/09/28 05:48:34;;;;;;;8.10;7.70;;;10.30;1.00;;;;;;5076800;28;20463;-83
2022/09/28 05:51:02;;;;;;;6.70;6.50;;;10.30;1.00;;;;;;5071428;28;21036;-85
2022/09/28 05:53:30;;;;;;;6.77;6.57;;;10.20;1.00;;;;;;5069340;28;20446;-83
2022/09/28 05:56:00;;;;;;;7.07;6.80;;;10.20;1.00;;;;;;5075717;28;20475;-83
2022/09/28 05:58:28;;;;;;;6.70;6.50;;;10.20;1.00;;;;;;5071647;28;20496;-85
2022/09/28 06:00:57;;;;;;;7.07;6.80;;;10.20;1.00;;;;;;5085390;28;20472;-85
2022/09/28 06:03:25;;;;;;;7.17;6.97;;;10.20;1.00;;;;;;5081939;28;20454;-84
2022/09/28 06:05:54;;;;;;;7.20;7.00;;;10.30;1.00;;;;;;5078958;28;20509;-84
2022/09/28 06:08:22;;;;;;;7.00;6.60;;;10.20;1.00;;;;;;5083041;28;20543;-85
2022/09/28 06:10:50;;;;;;;7.00;6.80;;;10.20;1.00;;;;;;5083808;28;20552;-84
2022/09/28 06:13:19;;;;;;;8.00;7.53;;;10.20;1.00;;;;;;5076088;28;20984;-85
2022/09/28 06:15:47;;;;;;;7.53;7.33;;;10.20;1.00;;;;;;5077731;28;20474;-85
2022/09/28 06:18:16;;;;;;;7.27;7.07;;;10.20;1.00;;;;;;5077362;28;20450;-84
2022/09/28 06:20:44;;;;;;;7.80;7.60;;;10.20;1.00;;;;;;5079301;28;20513;-84
2022/09/28 06:23:13;;;;;;;7.70;7.50;;;10.20;1.00;;;;;;5072008;28;20456;-84
2022/09/28 06:25:41;;;;;;;7.63;7.40;;;10.10;1.00;;;;;;5079151;28;20478;-84
2022/09/28 06:28:11;;;;;;;8.13;7.83;;;10.10;1.00;;;;;;5071745;28;20836;-84
2022/09/28 06:30:42;;;;;;;7.10;6.90;;;10.20;1.00;;;;;;5074313;28;20540;-84
2022/09/28 06:33:12;;;;;;;6.87;6.63;;;10.30;1.00;;;;;;5082423;28;20460;-84
2022/09/28 06:35:41;;;;;;;7.20;7.00;;;10.30;1.00;;;;;;5083950;28;20471;-84
2022/09/28 06:38:09;;;;;;;8.97;8.33;;;10.30;1.00;;;;;;5079025;28;20474;-84
2022/09/28 06:40:38;;;;;;;8.07;7.80;;;10.30;1.00;;;;;;5078251;28;20482;-84
2022/09/28 06:43:09;;;;;;;7.70;7.40;;;10.40;1.00;;;;;;5073721;28;21023;-85
2022/09/28 06:45:38;;;;;;;8.20;7.80;;;10.40;1.00;;;;;;5079770;28;20526;-84
2022/09/28 06:48:09;;;;;;;8.40;8.00;;;10.40;1.00;;;;;;5080426;28;20473;-84
2022/09/28 06:50:39;;;;;;;8.10;7.90;;;10.50;1.00;;;;;;5085833;28;20532;-84
2022/09/28 06:53:11;;;;;;;8.50;8.30;;;10.60;1.00;;;;;;5074281;28;20523;-85
2022/09/28 06:55:39;;;;;;;8.70;8.30;;;10.60;1.00;;;;;;5085703;28;20487;-84
2022/09/28 06:58:11;;;;;;;8.60;8.20;;;10.60;1.00;;;;;;5080702;28;20457;-84
2022/09/28 07:00:40;;;;;;;9.00;8.70;;;10.60;1.00;;;;;;5082215;28;20576;-85
2022/09/28 07:03:12;;;;;;;8.70;8.40;;;10.60;1.00;;;;;;5081387;28;20518;-85
2022/09/28 07:05:43;;;;;;;9.27;8.97;;;10.60;1.00;;;;;;5085309;28;20474;-85
2022/09/28 07:08:12;;;;;;;10.43;9.67;;;10.80;1.00;;;;;;5079228;28;21011;-85
2022/09/28 07:10:42;;;;;;;8.90;8.70;;;10.80;1.00;;;;;;5085050;28;20790;-85
2022/09/28 07:13:12;;;;;;;9.33;8.83;;;10.80;1.00;;;;;;5072608;28;20451;-85
2022/09/28 07:16:01;;;;;;;8.13;7.60;;;10.90;1.00;;;;;;5087260;28;20484;-84
2022/09/28 07:18:31;;;;;;;7.80;7.60;;;10.70;99.90;;;;;;5087307;28;20426;-85
2022/09/28 07:21:01;;;;;;;8.17;7.97;;;10.70;1.00;;;;;;5075216;28;21093;-84
2022/09/28 07:23:30;;;;;;;7.40;7.20;;;10.70;99.90;;;;;;5071160;28;20983;-85
2022/09/28 07:26:04;;;;;;;7.60;7.40;;;10.80;99.90;;;;;;5074715;28;20483;-83
2022/09/28 07:28:34;;;;;;;7.20;7.00;;;10.80;99.90;;;;;;5073703;28;20575;-84
2022/09/28 07:31:03;;;;;;;7.37;7.03;;;10.60;99.90;;;;;;5077077;28;20937;-83
2022/09/28 07:33:33;;;;;;;6.80;6.60;;;10.60;99.90;;;;;;5078070;28;20453;-83
2022/09/28 07:36:05;;;;;;;7.70;7.50;;;10.60;99.90;;;;;;5086100;28;20467;-83
2022/09/28 07:38:33;;;;;;;8.40;8.10;;;10.50;1.00;;;;;;5067770;28;20481;-83
2022/09/28 07:41:15;;;;;;;7.50;7.13;;;10.60;1.00;;;;;;5077629;28;20520;-84
2022/09/28 07:43:43;;;;;;;7.73;7.43;;;10.60;99.90;;;;;;5075972;28;20466;-83
2022/09/28 07:46:12;;;;;;;7.23;6.93;;;10.60;1.00;;;;;;5071674;28;20529;-85
2022/09/28 07:48:44;;;;;;;7.20;6.80;;;10.60;1.00;;;;;;5081057;28;20476;-83
2022/09/28 07:51:12;;;;;;;7.93;7.50;;;10.60;1.00;;;;;;5080586;28;20464;-83
2022/09/28 07:53:41;;;;;;;8.50;8.00;;;10.70;1.00;;;;;;5083577;28;20527;-83
2022/09/28 07:56:10;;;;;;;10.30;9.50;;;10.70;1.00;;;;;;5072667;28;20471;-83
2022/09/28 07:58:39;;;;;;;8.23;8.03;;;10.70;1.00;;;;;;5084090;28;20458;-84
2022/09/28 08:01:09;;;;;;;7.47;7.17;;;10.70;99.90;;;;;;5081306;28;20489;-83
2022/09/28 08:03:38;;;;;;;7.80;7.30;;;10.80;1.00;;;;;;5074070;28;20464;-83
2022/09/28 08:06:11;;;;;;;7.37;7.00;;;10.80;1.00;;;;;;5087138;28;20471;-84
2022/09/28 08:08:42;;;;;;;7.50;7.30;;;10.80;99.90;;;;;;5078388;28;21012;-84
2022/09/28 08:11:11;;;;;;;7.23;7.03;;;10.90;99.90;;;;;;5072987;28;20473;-83
2022/09/28 08:13:40;;;;;;;7.63;7.33;;;11.00;1.00;;;;;;5075203;28;21444;-85
2022/09/28 08:16:08;;;;;;;8.17;7.97;;;10.90;1.00;;;;;;5082257;28;20468;-84
2022/09/28 08:18:36;;;;;;;7.70;7.60;;;11.10;1.00;;;;;;5078352;28;20523;-83
2022/09/28 08:23:53;;;;;;;7.00;6.90;;;11.10;1.00;;;;;;5075573;28;20491;-84
2022/09/28 08:26:21;;;;;;;6.63;6.53;;;11.20;99.90;;;;;;5071448;28;20563;-84
2022/09/28 08:28:50;;;;;;;7.10;6.90;;;11.10;1.00;;;;;;5076491;28;20507;-84
2022/09/28 08:31:18;;;;;;;6.97;6.67;;;11.20;10.00;;;;;;5075625;28;20467;-84
2022/09/28 08:33:46;;;;;;;6.43;6.13;;;11.20;99.90;;;;;;5082078;28;20449;-85
2022/09/28 08:36:14;;;;;;;7.10;6.73;;;11.30;1.00;;;;;;5086841;28;20573;-85
2022/09/28 08:38:43;;;;;;;6.10;5.90;;;11.40;57.30;;;;;;5082486;28;20534;-83
2022/09/28 08:41:24;;;;;;;6.97;6.47;;;11.50;99.90;;;;;;5078486;28;20446;-84
2022/09/28 08:44:15;;;;;;;6.20;6.00;;;11.60;99.90;;;;;;5081127;28;20446;-85
2022/09/28 08:46:47;;;;;;;6.00;5.80;;;11.60;1.00;;;;;;5083278;28;20458;-84
2022/09/28 08:49:24;;;;;;;6.10;6.00;;;11.60;1.00;;;;;;5084613;28;20472;-84
2022/09/28 08:51:59;;;;;;;6.70;6.50;;;11.80;99.90;;;;;;5080473;28;20944;-85
2022/09/28 08:54:36;;;;;;;6.40;6.10;;;11.80;1.00;;;;;;5088781;28;20458;-85
2022/09/28 08:57:11;;;;;;;6.53;6.23;;;11.90;1.00;;;;;;5073903;28;20478;-85
2022/09/28 08:59:46;;;;;;;6.07;5.87;;;11.90;99.60;;;;;;5084023;28;20473;-85
2022/09/28 09:02:19;;;;;;;6.10;5.70;;;12.00;1.00;;;;;;5080137;28;20808;-85
2022/09/28 09:04:50;;;;;;;6.20;6.00;;;11.90;1.00;;;;;;5085864;28;20948;-85
2022/09/28 09:07:37;;;;;;;6.43;6.23;;;11.80;20.20;;;;;;5080204;28;20501;-85
2022/09/28 09:10:13;;;;;;;6.00;5.80;;;11.80;99.90;;;;;;5077615;28;20474;-85
2022/09/28 09:12:50;;;;;;;6.10;5.90;;;11.80;1.00;;;;;;5080610;28;20445;-84
2022/09/28 09:15:39;;;;;;;6.90;6.20;;;11.80;99.90;;;;;;5088049;28;20485;-85
2022/09/28 09:18:22;;;;;;;5.90;5.70;;;11.80;99.90;;;;;;5081037;28;20449;-84
2022/09/28 09:20:55;;;;;;;6.73;6.13;;;11.70;1.00;;;;;;5077722;28;20454;-85
2022/09/28 09:23:34;;;;;;;6.23;6.03;;;11.90;1.00;;;;;;5083847;28;20441;-85
2022/09/28 09:26:13;;;;;;;6.47;6.27;;;12.10;99.90;;;;;;5082390;28;20486;-85
2022/09/28 09:29:22;;;;;;;9.47;6.53;;;12.00;99.90;;;;;;5088017;28;20560;-85
2022/09/28 09:32:06;;;;;;;6.90;6.20;;;12.00;99.90;;;;;;5089223;28;20468;-85
2022/09/28 09:34:50;;;;;;;7.23;6.93;;;12.20;18.30;;;;;;5089965;28;20508;-86
2022/09/28 09:37:34;;;;;;;6.80;6.50;;;12.10;91.00;;;;;;5079842;28;20489;-85
2022/09/28 09:40:23;;;;;;;6.40;6.20;;;12.10;99.90;;;;;;5082709;28;20505;-86
2022/09/28 09:43:04;;;;;;;6.73;6.33;;;12.00;1.00;;;;;;5080296;28;20553;-85
2022/09/28 09:45:56;;;;;;;7.00;6.70;;;12.00;99.90;;;;;;5075656;28;20482;-86
2022/09/28 09:48:29;;;;;;;7.20;6.80;;;12.00;1.00;;;;;;5079221;28;20445;-85
2022/09/28 09:51:02;;;;;;;7.50;7.07;;;12.10;99.90;;;;;;5072970;28;20466;-85
2022/09/28 09:53:38;;;;;;;7.40;7.17;;;12.10;99.90;;;;;;5079807;28;20907;-86
2022/09/28 09:56:14;;;;;;;8.13;7.77;;;12.20;4.90;;;;;;5076565;28;20473;-86
2022/09/28 09:58:47;;;;;;;8.17;7.67;;;12.20;1.00;;;;;;5083442;28;20441;-86
2022/09/28 10:01:21;;;;;;;7.20;6.90;;;12.10;99.90;;;;;;5075695;28;20465;-86
2022/09/28 10:03:50;;;;;;;7.70;7.20;;;12.10;1.00;;;;;;5072782;28;20477;-84
2022/09/28 10:06:25;;;;;;;6.97;6.67;;;12.00;99.90;;;;;;5081086;28;20522;-85
2022/09/28 10:09:03;;;;;;;7.30;7.10;;;12.10;99.90;;;;;;5071668;28;20472;-86
2022/09/28 10:11:34;;;;;;;6.67;6.37;;;12.20;1.00;;;;;;5072307;28;20540;-85
2022/09/28 10:14:04;;;;;;;6.13;5.93;;;12.30;1.00;;;;;;5078380;28;20457;-84
2022/09/28 10:16:35;;;;;;;6.43;5.93;;;12.30;1.00;;;;;;5077444;28;20543;-86
2022/09/28 10:19:04;;;;;;;6.20;5.70;;;12.20;99.90;;;;;;5079087;28;20829;-84
2022/09/28 10:21:36;;;;;;;4.83;4.73;;;12.20;99.90;;;;;;5074413;28;21090;-84
2022/09/28 10:24:06;;;;;;;4.70;4.50;;;12.20;99.90;;;;;;5082634;28;20503;-85
2022/09/28 10:26:37;;;;;;;4.20;4.03;;;12.20;1.00;;;;;;5074936;28;20482;-85
2022/09/28 10:29:13;;;;;;;3.97;3.87;;;12.30;32.80;;;;;;5075881;28;20478;-85
2022/09/28 10:31:45;;;;;;;4.47;4.23;;;12.20;1.00;;;;;;5075079;28;20453;-85
2022/09/28 10:34:15;;;;;;;3.70;3.40;;;12.30;1.00;;;;;;5073325;28;20548;-84
2022/09/28 10:36:50;;;;;;;3.60;3.40;;;12.20;1.00;;;;;;5075915;28;20514;-86
2022/09/28 10:39:27;;;;;;;3.30;3.20;;;12.30;1.00;;;;;;5082416;28;20473;-85
2022/09/28 10:41:57;;;;;;;3.80;3.50;;;12.20;1.00;;;;;;5077799;28;20530;-83
2022/09/28 10:44:26;;;;;;;3.20;3.00;;;12.20;1.00;;;;;;5075812;28;20447;-85
2022/09/28 10:47:01;;;;;;;3.67;3.47;;;12.20;1.00;;;;;;5083533;28;20502;-84
2022/09/28 10:49:35;;;;;;;5.00;3.57;;;12.30;1.00;;;;;;5080844;28;21083;-83
2022/09/28 10:52:07;;;;;;;3.30;3.10;;;12.50;1.00;;;;;;5073137;28;20453;-84
2022/09/28 10:54:35;;;;;;;4.13;3.90;;;12.40;1.00;;;;;;5085438;28;20455;-84
2022/09/28 10:57:24;;;;;;;3.50;3.30;;;12.80;1.00;;;;;;5083142;28;21070;-85
2022/09/28 10:59:52;;;;;;;3.30;3.03;;;12.80;1.00;;;;;;5071644;28;20444;-83
2022/09/28 11:02:26;;;;;;;2.83;2.73;;;12.80;1.00;;;;;;5080982;28;20466;-86
2022/09/28 11:04:56;;;;;;;2.50;2.40;;;12.70;1.00;;;;;;5072772;28;20516;-85
2022/09/28 11:07:29;;;;;;;3.47;3.27;;;12.70;1.00;;;;;;5081221;28;20826;-85
2022/09/28 11:09:58;;;;;;;3.37;2.90;;;12.70;1.00;;;;;;5077322;28;20527;-84
2022/09/28 11:12:29;;;;;;;2.93;2.63;;;12.70;1.00;;;;;;5079452;28;20510;-83
2022/09/28 11:15:01;;;;;;;2.87;2.70;;;12.60;1.00;;;;;;5074092;28;20451;-83
2022/09/28 11:17:32;;;;;;;3.00;2.80;;;12.70;1.00;;;;;;5074786;28;20458;-85
2022/09/28 11:20:19;;;;;;;2.70;2.57;;;12.80;1.00;;;;;;5074772;28;20544;-84
2022/09/28 11:22:56;;;;;;;3.50;3.13;;;13.00;1.00;;;;;;5075889;28;20461;-84
2022/09/28 11:25:26;;;;;;;3.07;2.97;;;13.00;1.00;;;;;;5078174;28;20570;-85
2022/09/28 11:28:00;;;;;;;2.60;2.50;;;13.20;1.00;;;;;;5080507;28;20438;-85
2022/09/28 11:30:32;;;;;;;2.73;2.63;;;13.40;99.90;;;;;;5077401;28;20480;-84
2022/09/28 11:33:06;;;;;;;4.00;2.20;;;13.40;99.90;;;;;;5073057;28;20499;-84
2022/09/28 11:35:45;;;;;;;2.50;2.40;;;13.30;99.90;;;;;;5080403;28;20526;-85
2022/09/28 11:38:32;;;;;;;5.93;3.00;;;13.40;99.90;;;;;;5074074;28;20874;-84
2022/09/28 11:41:23;;;;;;;3.10;2.23;;;13.40;99.90;;;;;;5075180;28;20455;-84
2022/09/28 11:44:14;;;;;;;2.20;2.10;;;13.40;99.90;;;;;;5059372;28;20471;-84
2022/09/28 11:46:53;;;;;;;2.70;2.50;;;13.40;99.90;;;;;;5077796;28;20515;-84
2022/09/28 11:49:31;;;;;;;2.57;2.47;;;13.60;99.90;;;;;;5070129;28;20599;-86
2022/09/28 11:52:05;;;;;;;2.30;2.20;;;13.70;99.90;;;;;;5072755;28;20460;-84
2022/09/28 11:54:40;;;;;;;2.20;2.10;;;13.50;99.90;;;;;;5067591;28;20828;-84
2022/09/28 11:57:15;;;;;;;2.50;2.40;;;13.40;99.90;;;;;;5074580;28;20607;-84
2022/09/28 11:59:54;;;;;;;2.00;1.90;;;13.40;99.90;;;;;;5072480;28;20922;-84
2022/09/28 12:02:27;;;;;;;1.90;1.80;;;13.40;99.90;;;;;;5070560;28;20971;-86
2022/09/28 12:05:02;;;;;;;1.70;1.60;;;13.30;99.90;;;;;;5075228;28;20513;-85
2022/09/28 12:07:36;;;;;;;3.57;1.93;;;13.30;99.90;;;;;;5078532;28;21187;-84
2022/09/28 12:10:12;;;;;;;2.47;2.10;;;13.30;99.90;;;;;;5073732;28;20480;-85
2022/09/28 12:12:46;;;;;;;2.50;2.07;;;13.20;99.90;;;;;;5075145;28;20460;-84
2022/09/28 12:15:18;;;;;;;2.00;1.90;;;13.20;99.90;;;;;;5074006;28;21034;-85
2022/09/28 12:17:50;;;;;;;2.00;1.63;;;13.10;99.90;;;;;;5072006;28;20525;-84
2022/09/28 12:20:24;;;;;;;2.67;2.47;;;13.10;99.90;;;;;;5079055;28;20459;-85
2022/09/28 12:23:02;;;;;;;3.17;1.67;;;13.10;99.90;;;;;;5074224;28;20439;-84
2022/09/28 12:25:39;;;;;;;2.50;2.07;;;13.20;99.90;;;;;;5071880;28;20475;-85
2022/09/28 12:28:14;;;;;;;4.00;1.60;;;13.10;99.90;;;;;;5074135;28;20458;-84
2022/09/28 12:30:45;;;;;;;2.77;1.60;;;13.00;99.90;;;;;;5075245;28;20505;-85
2022/09/28 12:33:14;;;;;;;1.90;1.40;;;13.10;99.90;;;;;;5072950;28;20514;-85
2022/09/28 12:36:06;;;;;;;1.50;1.40;;;13.10;99.90;;;;;;5073384;28;20462;-84
2022/09/28 12:38:47;;;;;;;1.97;1.77;;;13.20;99.90;;;;;;5069675;28;20470;-84
2022/09/28 12:41:48;;;;;;;1.50;1.40;;;13.20;99.90;;;;;;5076640;28;21136;-86
2022/09/28 12:44:44;;;;;;;3.57;1.40;;;13.20;99.90;;;;;;5075709;28;20949;-84
2022/09/28 12:47:36;;;;;;;3.83;1.50;;;13.20;99.90;;;;;;5077066;28;20488;-84
2022/09/28 12:50:16;;;;;;;2.20;1.80;;;13.30;99.90;;;;;;5075638;28;20509;-84
2022/09/28 12:53:28;;;;;;;4.20;1.97;;;13.30;99.90;;;;;;5071772;28;20504;-83
2022/09/28 12:56:03;;;;;;;1.67;1.40;;;13.30;99.90;;;;;;5076594;28;20567;-85
2022/09/28 12:58:47;;;;;;;1.63;1.50;;;13.30;99.90;;;;;;5072210;28;20515;-84
2022/09/28 13:01:37;;;;;;;1.60;1.50;;;13.30;99.90;;;;;;5072513;28;20508;-85
2022/09/28 13:04:33;;;;;;;1.53;1.43;;;13.30;99.90;;;;;;5075760;28;20496;-84
2022/09/28 13:07:06;;;;;;;2.27;1.50;;;13.40;99.90;;;;;;5071710;28;20549;-85
2022/09/28 13:09:47;;;;;;;1.40;1.30;;;13.40;99.90;;;;;;5073121;28;20976;-84
2022/09/28 13:12:24;;;;;;;1.70;1.60;;;13.40;99.90;;;;;;5069404;28;20504;-84
2022/09/28 13:15:28;;;;;;;1.70;1.60;;;13.50;99.90;;;;;;5077942;28;20543;-84
2022/09/28 13:18:07;;;;;;;3.07;1.73;;;13.50;99.90;;;;;;5070811;28;20463;-83
2022/09/28 13:20:57;;;;;;;3.10;1.70;;;13.40;99.90;;;;;;5081505;28;20444;-84
2022/09/28 13:23:29;;;;;;;1.40;1.30;;;13.40;99.90;;;;;;5080596;28;20462;-84
2022/09/28 13:26:08;;;;;;;1.50;1.40;;;13.40;99.90;;;;;;5077958;28;20479;-84
2022/09/28 13:28:37;;;;;;;1.30;1.30;;;13.40;99.90;;;;;;5083262;28;20545;-84
2022/09/28 13:31:06;;;;;;;2.20;1.30;;;13.40;99.90;;;;;;5077716;28;20510;-83
2022/09/28 13:33:37;;;;;;;1.63;1.53;;;13.30;99.90;;;;;;5077365;28;20451;-84